Aeroporto :
LOGIN :

Iscrizione | Disclaimer

   EN    FR    IT 

 










Sommario :    VFR   VFR Marginale   IFR   IFR Intensivo   IFR Molto Intensivo
Visibilità : 
Base nubi : 
>= 8 km
>= 3000ft
5 / 8 km
1000 / 3000 ft
1500m / 5 km
500 / 1000 ft
800 / 1500m
200 / 500 ft
< 800m
< 200 ft
Simboli :   Temporali  Nebbia  Neve Forte  Precipitazioni Forti  Vento > 20 kt
SIGMETs :   Varie  Temporali  Ghiacco  Turbolenza  Onda orograficha  Ceneri Vulcaniche






- Altitudine del aeroporto : 236 ft
- Codice IATA : MMX


ESMS - Malmö Sturup

ULTIMO METAR :
  • 280720Z 34005KT 310V030 CAVOK 14/08 Q1030

METARs OBSOLETI :
  • 280650Z 32006KT CAVOK 14/08 Q1030
  • 280620Z 33009KT CAVOK 13/08 Q1030
  • 280550Z 34009KT CAVOK 12/08 Q1030
  • 280520Z 34010KT CAVOK 11/09 Q1030

TAF TAF ESMS
Valido dal 28 a 06 ore il 29 a 06 ore UTC


280502Z 2806/2906 31008KT 9999 FEW040
BECMG 2807/2809 02005KT
TEMPO 2810/2814 18010KT
BECMG 2814/2816 29008KT



MetMap, La meteo Aeronautica in un colpo d'occhio ! - Copyright ORBIFLY Dicembre 2007 - Disclaimer

ORBIFLY MET'MAP TEAM :

Programmazione e sviluppo : Alexandra Zaïnal
Concezione : Baudouin d'Aumeries
Aiuto per la programmazione : Marc-Olivier Méhu
Supporto tecnico e logistico : Manuel Goepfert
Aiuto per la traduzione : Arnaldo La Scala

Contatto : metmap@orbifly.com




FONTI E CREDITI :

   NOAA